Goshen, Illinois
Current Conditions -  °F | °C
As of 3:55 AM on Sunday 23 Nov 2014 (Local Time) from KC75 Reporting Station
Broken Clouds Broken Clouds  
Wind Chill: 46°   Ceiling: 8000
Heat Index: 50°   Visibility: 10mi
Dew Point: 45°   Wind: 9mph
Humidity: 83%   Direction: 180°S
Pressure: 29.75"   Gusts: NA
Location:  41.1043°N, 89.8577°W
Report Text: KC75 230955Z AUTO 18008KT 10SM SCT038 SCT048 BKN080 10/07 A2975 RMK AO2 T00980070
Loading
Personal Weather Stations






























Interactive Weather Map New forecast layout! Learn more

10-Day Weather Forecast

Advertisements
Track Severe Weather on mobile